CDT,Max TemperatureF,Mean TemperatureF,Min TemperatureF,Max Dew PointF,MeanDew PointF,Min DewpointF,Max Humidity, Mean Humidity, Min Humidity, Max Sea Level PressureIn, Mean Sea Level PressureIn, Min Sea Level PressureIn, Max VisibilityMiles, Mean VisibilityMiles, Min VisibilityMiles, Max Wind SpeedMPH, Mean Wind SpeedMPH, Max Gust SpeedMPH,PrecipitationIn, CloudCover, Events, WindDirDegrees
2013-10-1,83,74,65,68,65,61,100,74,47,30.03,29.96,29.89,10,7,0,15,8,20,0.00,3,Fog,169
2013-10-2,81,74,66,71,68,64,100,84,67,30.04,29.99,29.91,10,8,1,15,10,22,0.70,4,Rain-Thunderstorm,170
2013-10-3,84,75,66,69,66,64,93,74,55,29.97,29.90,29.83,10,10,10,22,14,26,0.00,3,,167
2013-10-4,84,77,69,69,66,62,90,74,58,29.95,29.88,29.84,10,10,10,23,13,30,0.00,1,,168
2013-10-5,73,60,47,68,54,45,100,94,87,30.04,29.98,29.88,10,6,1,23,8,31,1.84,7,Rain-Thunderstorm,285
2013-10-6,59,51,43,44,40,37,89,70,51,30.00,29.96,29.93,10,10,10,24,11,32,0.00,3,,272
2013-10-7,70,57,44,48,44,42,86,62,37,30.15,30.09,30.01,10,10,8,14,5,17,0.00,0,,325
2013-10-8,71,59,47,50,47,43,93,69,44,30.17,30.12,30.07,10,10,10,21,9,25,0.00,0,,144
2013-10-9,73,60,46,51,46,43,86,60,33,30.14,30.09,30.06,10,10,10,12,6,15,0.00,0,,150
2013-10-10,75,63,51,57,52,49,93,68,43,30.11,30.04,29.93,10,10,10,17,10,22,0.00,0,,154
2013-10-11,79,69,58,63,59,56,93,76,58,29.96,29.90,29.85,10,10,9,22,14,30,0.00,1,,163
2013-10-12,70,61,52,61,55,47,90,69,47,30.20,30.05,29.89,10,9,2,26,9,35,0.41,5,Rain-Thunderstorm,13
2013-10-13,70,61,52,47,43,39,77,57,37,30.36,30.29,30.22,10,10,10,18,9,23,0.00,4,,71
2013-10-14,65,61,56,59,49,39,90,71,51,30.27,30.13,29.96,10,10,10,24,14,30,T,3,Rain,139
2013-10-15,64,57,49,61,56,46,93,83,72,30.06,29.96,29.87,10,8,2,23,9,28,0.49,6,Rain,298
2013-10-16,58,50,41,44,41,37,89,74,59,30.12,30.06,30.01,10,10,7,15,6,20,T,3,,314
2013-10-17,62,53,43,45,42,39,92,69,46,30.05,30.01,29.96,10,10,6,15,7,19,0.00,2,,248
2013-10-18,56,48,39,43,41,38,96,79,61,30.09,30.05,30.00,10,10,4,16,9,22,0.20,5,Rain,352
2013-10-19,57,47,36,39,36,33,92,66,40,30.12,30.06,30.01,10,9,4,16,9,21,T,5,Rain,264
2013-10-20,68,54,40,42,38,35,92,62,32,30.01,29.95,29.88,10,10,10,24,11,29,0.00,0,,185
2013-10-21,56,46,36,44,39,34,86,68,50,30.11,30.05,29.95,10,10,2,20,6,24,T,4,Rain-Snow,272
2013-10-22,65,50,35,43,37,33,92,66,39,30.09,30.00,29.91,10,10,10,22,11,29,0.00,2,,247
2013-10-23,55,44,32,38,34,31,96,71,46,30.20,30.12,30.04,10,10,10,13,5,14,0.00,2,,339
2013-10-24,51,42,32,38,31,25,92,64,36,30.43,30.29,30.11,10,10,10,18,8,25,0.00,1,,7
2013-10-25,54,42,29,30,27,24,85,59,32,30.51,30.41,30.21,10,10,10,16,8,27,0.00,0,,157
2013-10-26,63,51,39,49,41,31,83,70,56,30.20,30.14,30.09,10,9,3,16,8,21,0.00,3,,243
2013-10-27,65,48,31,40,34,28,92,62,31,30.14,30.07,30.00,10,10,10,12,4,14,0.00,0,,172
2013-10-28,66,54,41,53,48,39,100,76,52,30.19,30.12,30.03,10,6,0,14,8,18,0.00,2,Fog,163
2013-10-29,65,60,55,63,57,51,97,92,86,30.13,30.07,29.99,10,6,2,23,13,29,2.35,8,Rain-Thunderstorm,143
2013-10-30,67,65,62,63,62,59,93,90,87,30.05,29.94,29.80,10,9,4,30,15,38,0.42,6,Rain,170
2013-10-31,65,56,47,62,56,46,93,89,84,29.78,29.60,29.46,10,9,2,21,11,27,0.52,7,Rain-Thunderstorm,263